Time;durP1;ratioP1;P1;durP2;ratioP2;P2;SDS_P1;SDS_P2;PMS_P1;PMS_P2;Temp;Humidity;BMP_temperature;BMP_pressure;BME280_temperature;BME280_humidity;BME280_pressure;Samples;Min_cycle;Max_cycle;Signal;HPM_P1;HPM_P2
2023/03/28 00:01:10;;;;;;;;;5.00;5.00;;;;;;;;117506;1180;25466;-61
2023/03/28 00:03:39;;;;;;;;;6.00;4.67;;;;;;;;117485;1180;25509;-61
2023/03/28 00:06:11;;;;;;;;;6.00;5.00;;;;;;;;117488;1186;24713;-61
2023/03/28 00:08:39;;;;;;;;;3.00;3.00;;;;;;;;117840;1180;25441;-61
2023/03/28 00:11:17;;;;;;;;;5.00;4.50;;;;;;;;117471;1184;24907;-61
2023/03/28 00:13:56;;;;;;;;;4.33;4.33;;;;;;;;117530;1193;25617;-62
2023/03/28 00:16:30;;;;;;;;;3.67;2.67;;;;;;;;117515;1193;24777;-61
2023/03/28 00:19:05;;;;;;;;;8.00;5.00;;;;;;;;117849;1193;26183;-61
2023/03/28 00:21:40;;;;;;;;;9.33;5.33;;;;;;;;117837;1186;24978;-61
2023/03/28 00:24:13;;;;;;;;;4.25;4.00;;;;;;;;117860;1180;24882;-62
2023/03/28 00:26:44;;;;;;;;;5.00;5.00;;;;;;;;117847;1181;25333;-61
2023/03/28 00:29:19;;;;;;;;;3.50;3.50;;;;;;;;117829;1180;25485;-61
2023/03/28 00:31:49;;;;;;;;;;;;;;;;;;117493;1180;25277;-60
2023/03/28 00:34:17;;;;;;;;;7.00;4.00;;;;;;;;117841;1180;25659;-61
2023/03/28 00:36:46;;;;;;;;;6.33;4.00;;;;;;;;117797;1180;25756;-61
2023/03/28 00:39:14;;;;;;;;;4.50;4.50;;;;;;;;117822;1180;25367;-61
2023/03/28 00:41:43;;;;;;;;;2.00;2.00;;;;;;;;117823;1180;25641;-61
2023/03/28 00:44:39;;;;;;;;;4.67;4.67;;;;;;;;117410;1183;25238;-61
2023/03/28 00:47:35;;;;;;;;;5.50;4.00;;;;;;;;117416;1181;24855;-61
2023/03/28 00:50:07;;;;;;;;;8.00;5.00;;;;;;;;117442;1190;25684;-61
2023/03/28 00:53:08;;;;;;;;;6.00;4.00;;;;;;;;117451;1180;25598;-63
2023/03/28 00:55:39;;;;;;;;;6.00;3.33;;;;;;;;117460;1193;25660;-63
2023/03/28 00:58:10;;;;;;;;;4.00;4.00;;;;;;;;117417;1187;25406;-62
2023/03/28 01:00:45;;;;;;;;;5.00;4.00;;;;;;;;117813;1180;25447;-61
2023/03/28 01:03:15;;;;;;;;;4.00;4.00;;;;;;;;117833;1186;25428;-60
2023/03/28 01:05:46;;;;;;;;;5.00;5.00;;;;;;;;117532;1180;25581;-61
2023/03/28 01:08:20;;;;;;;;;4.00;4.00;;;;;;;;117532;1193;25252;-61
2023/03/28 01:10:49;;;;;;;;;4.00;4.00;;;;;;;;117465;1181;25000;-61
2023/03/28 01:13:30;;;;;;;;;5.00;4.00;;;;;;;;117858;1180;25593;-61
2023/03/28 01:16:01;;;;;;;;;6.25;4.25;;;;;;;;117729;1186;25602;-61
2023/03/28 01:18:33;;;;;;;;;4.00;4.00;;;;;;;;117448;1193;25622;-61
2023/03/28 01:21:05;;;;;;;;;5.50;5.50;;;;;;;;117429;1193;25112;-61
2023/03/28 01:24:21;;;;;;;;;6.00;4.50;;;;;;;;117456;1180;25551;-61
2023/03/28 01:26:49;;;;;;;;;4.00;3.50;;;;;;;;117370;1185;25648;-62
2023/03/28 01:30:06;;;;;;;;;5.00;4.00;;;;;;;;117405;1180;24860;-61
2023/03/28 01:32:52;;;;;;;;;4.50;4.50;;;;;;;;117413;1185;25060;-60
2023/03/28 01:35:49;;;;;;;;;4.67;4.00;;;;;;;;117701;1190;25652;-62
2023/03/28 01:38:33;;;;;;;;;5.00;5.00;;;;;;;;117470;1180;25067;-62
2023/03/28 01:41:16;;;;;;;;;6.50;6.00;;;;;;;;117433;1181;25073;-62
2023/03/28 01:43:54;;;;;;;;;4.50;4.50;;;;;;;;117814;1180;25652;-61
2023/03/28 01:46:29;;;;;;;;;2.00;2.00;;;;;;;;117787;1180;24830;-61
2023/03/28 01:49:21;;;;;;;;;5.00;4.00;;;;;;;;117469;1180;25406;-61
2023/03/28 01:52:04;;;;;;;;;3.00;3.00;;;;;;;;117577;1181;24796;-62
2023/03/28 01:54:51;;;;;;;;;3.67;3.67;;;;;;;;117452;1181;24967;-63
2023/03/28 01:57:20;;;;;;;;;3.00;3.00;;;;;;;;117776;1193;25230;-60
2023/03/28 01:59:57;;;;;;;;;2.00;2.00;;;;;;;;117788;1180;24977;-61
2023/03/28 02:02:34;;;;;;;;;3.00;3.00;;;;;;;;117803;1189;25399;-62
2023/03/28 02:05:07;;;;;;;;;4.50;3.00;;;;;;;;117814;1180;25753;-62
2023/03/28 02:07:37;;;;;;;;;7.50;5.00;;;;;;;;117803;1186;25429;-62
2023/03/28 02:10:07;;;;;;;;;5.25;4.50;;;;;;;;117802;1180;25204;-61
2023/03/28 02:12:41;;;;;;;;;5.00;4.00;;;;;;;;117832;1180;25451;-61
2023/03/28 02:15:12;;;;;;;;;4.50;3.00;;;;;;;;117841;1180;24849;-61
2023/03/28 02:17:46;;;;;;;;;2.00;2.00;;;;;;;;117843;1180;25168;-61
2023/03/28 02:20:18;;;;;;;;;3.33;3.33;;;;;;;;117436;1180;25443;-60
2023/03/28 02:22:54;;;;;;;;;3.33;3.00;;;;;;;;117493;1193;25362;-61
2023/03/28 02:25:22;;;;;;;;;6.00;3.00;;;;;;;;117800;1192;25616;-61
2023/03/28 02:27:54;;;;;;;;;3.00;3.00;;;;;;;;117483;1193;24805;-61
2023/03/28 02:30:22;;;;;;;;;5.00;4.00;;;;;;;;117836;1193;25234;-61
2023/03/28 02:32:51;;;;;;;;;4.50;4.00;;;;;;;;117488;1180;25055;-61
2023/03/28 02:35:25;;;;;;;;;6.33;4.33;;;;;;;;117507;1182;25133;-61
2023/03/28 02:38:02;;;;;;;;;5.00;4.00;;;;;;;;117850;1181;25424;-61
2023/03/28 02:40:55;;;;;;;;;6.00;5.00;;;;;;;;117840;1181;24773;-61
2023/03/28 02:43:45;;;;;;;;;3.00;3.00;;;;;;;;117727;1180;25591;-61
2023/03/28 02:46:29;;;;;;;;;6.00;5.67;;;;;;;;117833;1186;25606;-61
2023/03/28 02:49:21;;;;;;;;;6.00;6.00;;;;;;;;117835;1193;25675;-61
2023/03/28 02:51:59;;;;;;;;;5.00;3.00;;;;;;;;117831;1180;25659;-61
2023/03/28 02:54:30;;;;;;;;;5.00;5.00;;;;;;;;117473;1181;25683;-61
2023/03/28 02:57:12;;;;;;;;;8.00;6.00;;;;;;;;117531;1190;25072;-60
2023/03/28 02:59:44;;;;;;;;;6.00;5.00;;;;;;;;117868;1180;25611;-61
2023/03/28 03:02:20;;;;;;;;;5.00;4.00;;;;;;;;117795;1180;25143;-61
2023/03/28 03:04:49;;;;;;;;;4.33;4.00;;;;;;;;117487;1186;24733;-61
2023/03/28 03:07:18;;;;;;;;;5.67;4.33;;;;;;;;117822;1181;25434;-61
2023/03/28 03:09:46;;;;;;;;;7.00;5.00;;;;;;;;117484;1184;24990;-61
2023/03/28 03:12:15;;;;;;;;;3.50;3.50;;;;;;;;117840;1180;25590;-61
2023/03/28 03:14:43;;;;;;;;;5.00;3.00;;;;;;;;117825;1180;25906;-61
2023/03/28 03:17:12;;;;;;;;;4.50;4.50;;;;;;;;117850;1187;25404;-62
2023/03/28 03:19:42;;;;;;;;;4.00;3.33;;;;;;;;117450;1193;25396;-61
2023/03/28 03:22:11;;;;;;;;;4.00;4.00;;;;;;;;117808;1186;25419;-61
2023/03/28 03:24:49;;;;;;;;;8.75;4.00;;;;;;;;117809;1180;24955;-61
2023/03/28 03:27:18;;;;;;;;;4.75;4.50;;;;;;;;117873;1193;25027;-61
2023/03/28 03:29:47;;;;;;;;;3.00;3.00;;;;;;;;117819;1184;24817;-61
2023/03/28 03:32:15;;;;;;;;;3.00;3.00;;;;;;;;117491;1183;25617;-61
2023/03/28 03:34:44;;;;;;;;;4.00;3.00;;;;;;;;117853;1182;25174;-61
2023/03/28 03:37:13;;;;;;;;;7.25;6.00;;;;;;;;117512;1181;24764;-61
2023/03/28 03:39:42;;;;;;;;;6.50;5.00;;;;;;;;117815;1180;25714;-61
2023/03/28 03:42:12;;;;;;;;;2.67;2.00;;;;;;;;117787;1180;25310;-62
2023/03/28 03:44:40;;;;;;;;;4.67;4.00;;;;;;;;117549;1180;26257;-61
2023/03/28 03:47:09;;;;;;;;;2.00;2.00;;;;;;;;117808;1193;25448;-61
2023/03/28 03:49:37;;;;;;;;;6.00;4.00;;;;;;;;117727;1189;24924;-61
2023/03/28 03:52:06;;;;;;;;;4.00;3.00;;;;;;;;117783;1180;25427;-62
2023/03/28 03:54:35;;;;;;;;;3.25;3.00;;;;;;;;117784;1187;24774;-62
2023/03/28 03:57:05;;;;;;;;;4.00;4.00;;;;;;;;117766;1193;25135;-61
2023/03/28 03:59:34;;;;;;;;;4.00;3.33;;;;;;;;117815;1191;24844;-61
2023/03/28 04:02:02;;;;;;;;;3.00;2.00;;;;;;;;117774;1180;24981;-61
2023/03/28 04:04:31;;;;;;;;;5.00;4.00;;;;;;;;117778;1193;25623;-61
2023/03/28 04:07:01;;;;;;;;;6.00;4.00;;;;;;;;117788;1192;24807;-61
2023/03/28 04:09:29;;;;;;;;;3.67;3.67;;;;;;;;117493;1193;25088;-61
2023/03/28 04:11:58;;;;;;;;;4.00;4.00;;;;;;;;117845;1193;25412;-61
2023/03/28 04:14:26;;;;;;;;;4.67;3.33;;;;;;;;117439;1181;24678;-62
2023/03/28 04:16:55;;;;;;;;;3.75;3.00;;;;;;;;117782;1193;24979;-61
2023/03/28 04:19:24;;;;;;;;;3.00;3.00;;;;;;;;117878;1190;25277;-61
2023/03/28 04:21:55;;;;;;;;;6.00;3.50;;;;;;;;117714;1185;25585;-62
2023/03/28 04:24:24;;;;;;;;;5.00;2.00;;;;;;;;117695;1189;24856;-63
2023/03/28 04:26:54;;;;;;;;;4.00;4.00;;;;;;;;117829;1181;24780;-64
2023/03/28 04:29:32;;;;;;;;;4.00;4.00;;;;;;;;117782;1180;25231;-61
2023/03/28 04:32:01;;;;;;;;;6.50;4.25;;;;;;;;117781;1193;24827;-60
2023/03/28 04:34:29;;;;;;;;;3.67;3.67;;;;;;;;117504;1180;25571;-62
2023/03/28 04:37:02;;;;;;;;;4.00;4.00;;;;;;;;117811;1191;25584;-61
2023/03/28 04:39:34;;;;;;;;;4.00;3.00;;;;;;;;117835;1181;24805;-61
2023/03/28 04:42:04;;;;;;;;;4.67;3.00;;;;;;;;117817;1180;24715;-62
2023/03/28 04:44:33;;;;;;;;;3.25;3.00;;;;;;;;117476;1180;24990;-62
2023/03/28 04:47:01;;;;;;;;;3.00;3.00;;;;;;;;117812;1180;25751;-61
2023/03/28 04:49:29;;;;;;;;;7.00;3.50;;;;;;;;117800;1180;25283;-60
2023/03/28 04:51:58;;;;;;;;;3.25;3.25;;;;;;;;117819;1180;25036;-61
2023/03/28 04:54:26;;;;;;;;;4.00;4.00;;;;;;;;117804;1181;24989;-61
2023/03/28 04:56:55;;;;;;;;;3.00;3.00;;;;;;;;117817;1191;24931;-61
2023/03/28 04:59:23;;;;;;;;;3.00;3.00;;;;;;;;117869;1180;25477;-61
2023/03/28 05:01:52;;;;;;;;;5.50;2.00;;;;;;;;117680;1191;25331;-59
2023/03/28 05:04:25;;;;;;;;;3.50;3.00;;;;;;;;117758;1180;25198;-63
2023/03/28 05:06:53;;;;;;;;;3.00;3.00;;;;;;;;117740;1180;25526;-62
2023/03/28 05:09:22;;;;;;;;;4.00;1.00;;;;;;;;117799;1192;25364;-62
2023/03/28 05:11:50;;;;;;;;;1.50;1.50;;;;;;;;117809;1181;25156;-62
2023/03/28 05:14:19;;;;;;;;;4.00;3.00;;;;;;;;117458;1193;25242;-60
2023/03/28 05:16:47;;;;;;;;;4.00;4.00;;;;;;;;118421;1181;24806;-61
2023/03/28 05:19:16;;;;;;;;;3.00;3.00;;;;;;;;117701;1181;25469;-61
2023/03/28 05:21:45;;;;;;;;;3.67;3.00;;;;;;;;117708;1190;24853;-60
2023/03/28 05:24:14;;;;;;;;;3.00;3.00;;;;;;;;117816;1181;24964;-62
2023/03/28 05:26:42;;;;;;;;;4.00;4.00;;;;;;;;117798;1180;25729;-62
2023/03/28 05:29:11;;;;;;;;;5.50;3.00;;;;;;;;117795;1190;26630;-63
2023/03/28 05:31:39;;;;;;;;;2.33;2.00;;;;;;;;117625;1181;25547;-62
2023/03/28 05:34:08;;;;;;;;;3.00;3.00;;;;;;;;117648;1180;25245;-64
2023/03/28 05:36:36;;;;;;;;;4.50;4.50;;;;;;;;117503;1180;24959;-64
2023/03/28 05:39:05;;;;;;;;;3.75;2.50;;;;;;;;117888;1184;24761;-62
2023/03/28 05:41:34;;;;;;;;;4.00;3.75;;;;;;;;117772;1180;25559;-62
2023/03/28 05:44:03;;;;;;;;;3.00;3.00;;;;;;;;117843;1193;25332;-62
2023/03/28 05:46:31;;;;;;;;;6.00;5.00;;;;;;;;117481;1180;24933;-62
2023/03/28 05:49:00;;;;;;;;;4.00;3.00;;;;;;;;117684;1180;25000;-63
2023/03/28 05:51:29;;;;;;;;;4.67;4.67;;;;;;;;117435;1186;24865;-63
2023/03/28 05:53:57;;;;;;;;;3.33;3.33;;;;;;;;117424;1180;25593;-63
2023/03/28 05:56:26;;;;;;;;;2.67;2.67;;;;;;;;117498;1180;25207;-64
2023/03/28 05:58:54;;;;;;;;;6.50;4.25;;;;;;;;117815;1193;25595;-71
2023/03/28 06:01:26;;;;;;;;;7.00;3.00;;;;;;;;117794;1185;25651;-74
2023/03/28 06:03:55;;;;;;;;;8.00;4.50;;;;;;;;117511;1183;26427;-63
2023/03/28 06:06:23;;;;;;;;;5.00;3.00;;;;;;;;117848;1181;25469;-63
2023/03/28 06:08:51;;;;;;;;;4.00;2.00;;;;;;;;117815;1180;25155;-64
2023/03/28 06:11:20;;;;;;;;;6.00;3.00;;;;;;;;117463;1181;25518;-63
2023/03/28 06:13:48;;;;;;;;;4.00;4.00;;;;;;;;117830;1181;25681;-63
2023/03/28 06:16:17;;;;;;;;;7.33;4.00;;;;;;;;117772;1193;25442;-64
2023/03/28 06:18:57;;;;;;;;;7.33;3.33;;;;;;;;117798;1180;24845;-63
2023/03/28 06:21:44;;;;;;;;;3.00;3.00;;;;;;;;117777;1187;24817;-63
2023/03/28 06:24:12;;;;;;;;;3.00;3.00;;;;;;;;117760;1180;24932;-63
2023/03/28 06:26:41;;;;;;;;;4.00;4.00;;;;;;;;117791;1181;24946;-63
2023/03/28 06:29:10;;;;;;;;;3.00;2.00;;;;;;;;117834;1180;25733;-61
2023/03/28 06:31:39;;;;;;;;;3.00;3.00;;;;;;;;117818;1180;24788;-61
2023/03/28 06:34:08;;;;;;;;;4.67;3.00;;;;;;;;117824;1186;25190;-61
2023/03/28 06:36:36;;;;;;;;;5.00;4.00;;;;;;;;117812;1180;25302;-66
2023/03/28 06:39:04;;;;;;;;;5.00;2.00;;;;;;;;117802;1185;25613;-67
2023/03/28 06:41:33;;;;;;;;;5.00;2.00;;;;;;;;117786;1181;24735;-65
2023/03/28 06:44:02;;;;;;;;;5.00;3.00;;;;;;;;117760;1180;24786;-65
2023/03/28 06:46:31;;;;;;;;;8.67;4.67;;;;;;;;117797;1189;25276;-66
2023/03/28 06:48:59;;;;;;;;;7.33;3.00;;;;;;;;117725;1187;24902;-66
2023/03/28 06:51:28;;;;;;;;;24.50;22.00;;;;;;;;117829;1180;25286;-67
2023/03/28 06:53:56;;;;;;;;;18.00;15.00;;;;;;;;117419;1183;25095;-69
2023/03/28 06:56:25;;;;;;;;;11.50;9.25;;;;;;;;117729;1180;25018;-67
2023/03/28 06:58:53;;;;;;;;;12.33;9.67;;;;;;;;117838;1180;25726;-69
2023/03/28 07:01:22;;;;;;;;;19.50;16.50;;;;;;;;117491;1193;24888;-69
2023/03/28 07:03:50;;;;;;;;;13.50;12.00;;;;;;;;117818;1180;24937;-72
2023/03/28 07:06:19;;;;;;;;;12.00;10.33;;;;;;;;117784;1180;24890;-68
2023/03/28 07:08:48;;;;;;;;;13.00;8.00;;;;;;;;117438;1193;25114;-69
2023/03/28 07:11:16;;;;;;;;;12.33;10.00;;;;;;;;117840;1180;24721;-69
2023/03/28 07:13:44;;;;;;;;;8.50;8.50;;;;;;;;117860;1189;24818;-72
2023/03/28 07:16:14;;;;;;;;;10.00;8.00;;;;;;;;117860;1180;25262;-72
2023/03/28 07:18:43;;;;;;;;;12.00;6.00;;;;;;;;117823;1185;25763;-72
2023/03/28 07:21:16;;;;;;;;;12.00;9.00;;;;;;;;117478;1184;24779;-72
2023/03/28 07:23:44;;;;;;;;;11.00;9.00;;;;;;;;117784;1187;25484;-68
2023/03/28 07:26:14;;;;;;;;;9.50;9.00;;;;;;;;117788;1193;25395;-70
2023/03/28 07:28:42;;;;;;;;;6.33;6.33;;;;;;;;117445;1192;25189;-62
2023/03/28 07:31:11;;;;;;;;;9.00;8.00;;;;;;;;117710;1180;25039;-65
2023/03/28 07:33:39;;;;;;;;;9.00;5.00;;;;;;;;117500;1193;25595;-65
2023/03/28 07:36:11;;;;;;;;;11.00;10.00;;;;;;;;117785;1193;25478;-66
2023/03/28 07:38:39;;;;;;;;;13.00;9.00;;;;;;;;117766;1193;24672;-65
2023/03/28 07:41:08;;;;;;;;;9.33;9.00;;;;;;;;117758;1180;24681;-65
2023/03/28 07:43:38;;;;;;;;;10.00;7.50;;;;;;;;117830;1180;25540;-65
2023/03/28 07:46:09;;;;;;;;;8.67;8.67;;;;;;;;117474;1184;25123;-65
2023/03/28 07:48:39;;;;;;;;;10.00;7.75;;;;;;;;117775;1193;24958;-65
2023/03/28 07:51:09;;;;;;;;;10.50;8.00;;;;;;;;117817;1180;25511;-65
2023/03/28 07:53:37;;;;;;;;;12.00;8.50;;;;;;;;117694;1193;25487;-66
2023/03/28 07:56:09;;;;;;;;;8.33;8.33;;;;;;;;117557;1183;24978;-69
2023/03/28 07:58:39;;;;;;;;;7.00;7.00;;;;;;;;117744;1190;25159;-67
2023/03/28 08:01:10;;;;;;;;;5.00;5.00;;;;;;;;117611;1180;25450;-74
2023/03/28 08:03:40;;;;;;;;;11.00;9.00;;;;;;;;117812;1181;25319;-69
2023/03/28 08:06:10;;;;;;;;;7.50;6.00;;;;;;;;117770;1192;25023;-74
2023/03/28 08:08:59;;;;;;;;;9.00;5.00;;;;;;;;117659;1186;25649;-75
2023/03/28 08:11:27;;;;;;;;;8.00;7.50;;;;;;;;117548;1184;25010;-66
2023/03/28 08:13:55;;;;;;;;;8.00;5.25;;;;;;;;117602;1180;24734;-66
2023/03/28 08:16:24;;;;;;;;;9.00;7.00;;;;;;;;117501;1180;24895;-68
2023/03/28 08:18:52;;;;;;;;;7.00;6.00;;;;;;;;117813;1193;25050;-66
2023/03/28 08:21:37;;;;;;;;;12.00;6.50;;;;;;;;117804;1193;25522;-64
2023/03/28 08:24:06;;;;;;;;;9.67;6.67;;;;;;;;117409;1183;25242;-65
2023/03/28 08:26:35;;;;;;;;;7.00;6.00;;;;;;;;117702;1186;24968;-65
2023/03/28 08:29:04;;;;;;;;;7.50;6.00;;;;;;;;117800;1181;25655;-66
2023/03/28 08:31:33;;;;;;;;;10.00;8.50;;;;;;;;117845;1180;25223;-67
2023/03/28 08:34:01;;;;;;;;;5.00;5.00;;;;;;;;117757;1193;24947;-63
2023/03/28 08:36:30;;;;;;;;;6.00;5.67;;;;;;;;117461;1180;24927;-63
2023/03/28 08:39:03;;;;;;;;;8.00;6.00;;;;;;;;119448;1193;24963;-64
2023/03/28 08:41:31;;;;;;;;;7.50;5.00;;;;;;;;118437;1184;25354;-63
2023/03/28 08:44:05;;;;;;;;;7.33;6.00;;;;;;;;117808;1180;25118;-63
2023/03/28 08:46:34;;;;;;;;;9.00;7.50;;;;;;;;117812;1181;24816;-63
2023/03/28 08:49:08;;;;;;;;;5.50;5.00;;;;;;;;117469;1186;25651;-63
2023/03/28 08:51:50;;;;;;;;;12.00;7.00;;;;;;;;117468;1180;24959;-63
2023/03/28 08:54:22;;;;;;;;;6.25;5.00;;;;;;;;117800;1180;25512;-63
2023/03/28 08:56:54;;;;;;;;;5.00;5.00;;;;;;;;117759;1187;25319;-62
2023/03/28 08:59:25;;;;;;;;;7.00;6.00;;;;;;;;117690;1181;24911;-63
2023/03/28 09:01:53;;;;;;;;;4.00;4.00;;;;;;;;117709;1180;25175;-63
2023/03/28 09:04:34;;;;;;;;;3.25;3.25;;;;;;;;117799;1192;25630;-63
2023/03/28 09:07:21;;;;;;;;;4.75;4.75;;;;;;;;117799;1193;25163;-62
2023/03/28 09:10:27;;;;;;;;;5.00;4.67;;;;;;;;117812;1180;25232;-63
2023/03/28 09:13:04;;;;;;;;;6.00;3.50;;;;;;;;117703;1180;25103;-62
2023/03/28 09:15:38;;;;;;;;;4.00;4.00;;;;;;;;117598;1180;24792;-63
2023/03/28 09:18:31;;;;;;;;;5.00;5.00;;;;;;;;117690;1180;25429;-62
2023/03/28 09:21:11;;;;;;;;;6.00;4.00;;;;;;;;117738;1180;25072;-63
2023/03/28 09:23:52;;;;;;;;;4.50;1.00;;;;;;;;117810;1180;25180;-62
2023/03/28 09:26:29;;;;;;;;;2.50;1.00;;;;;;;;117783;1180;25165;-62
2023/03/28 09:29:07;;;;;;;;;4.50;3.75;;;;;;;;117465;1193;25364;-62
2023/03/28 09:31:43;;;;;;;;;6.00;4.00;;;;;;;;117763;1180;25111;-62
2023/03/28 09:34:19;;;;;;;;;7.00;4.00;;;;;;;;117488;1181;24970;-63
2023/03/28 09:36:49;;;;;;;;;6.75;3.75;;;;;;;;117734;1181;25689;-62
2023/03/28 09:39:34;;;;;;;;;5.33;5.00;;;;;;;;117759;1180;24878;-63
2023/03/28 09:42:16;;;;;;;;;5.00;4.00;;;;;;;;117747;1181;25188;-62
2023/03/28 09:44:56;;;;;;;;;4.75;4.00;;;;;;;;117521;1184;25107;-62
2023/03/28 09:47:25;;;;;;;;;4.00;3.00;;;;;;;;117772;1180;24949;-62
2023/03/28 09:49:54;;;;;;;;;3.00;3.00;;;;;;;;117792;1180;24977;-63
2023/03/28 09:52:39;;;;;;;;;4.00;4.00;;;;;;;;117525;1193;25595;-63
2023/03/28 09:55:28;;;;;;;;;3.33;3.00;;;;;;;;117783;1193;25274;-63
2023/03/28 09:58:08;;;;;;;;;3.00;3.00;;;;;;;;117788;1192;25392;-63
2023/03/28 10:00:43;;;;;;;;;7.33;3.33;;;;;;;;117830;1193;25270;-63
2023/03/28 10:03:28;;;;;;;;;4.00;2.00;;;;;;;;117481;1181;25769;-63
2023/03/28 10:05:58;;;;;;;;;5.00;5.00;;;;;;;;117469;1180;26374;-67
2023/03/28 10:08:34;;;;;;;;;6.00;6.00;;;;;;;;117568;1193;25489;-64
2023/03/28 10:11:05;;;;;;;;;5.67;4.00;;;;;;;;117506;1192;25358;-68
2023/03/28 10:13:41;;;;;;;;;3.00;3.00;;;;;;;;117780;1181;25223;-65
2023/03/28 10:16:10;;;;;;;;;4.00;4.00;;;;;;;;117828;1181;25019;-63
2023/03/28 10:18:41;;;;;;;;;3.50;3.50;;;;;;;;117514;1191;25595;-62
2023/03/28 10:21:13;;;;;;;;;8.00;4.67;;;;;;;;117769;1181;25096;-63
2023/03/28 10:23:46;;;;;;;;;4.67;4.00;;;;;;;;117773;1181;25178;-64
2023/03/28 10:26:21;;;;;;;;;6.00;6.00;;;;;;;;117496;1182;25322;-63
2023/03/28 10:28:56;;;;;;;;;3.00;3.00;;;;;;;;117810;1193;25405;-63
2023/03/28 10:31:30;;;;;;;;;3.00;3.00;;;;;;;;117790;1180;25519;-63
2023/03/28 10:34:01;;;;;;;;;4.50;2.50;;;;;;;;117763;1193;24855;-63
2023/03/28 10:36:40;;;;;;;;;4.50;3.00;;;;;;;;117493;1182;25003;-62
2023/03/28 10:39:19;;;;;;;;;2.00;2.00;;;;;;;;117474;1184;25159;-62
2023/03/28 10:41:59;;;;;;;;;3.00;3.00;;;;;;;;117733;1181;25182;-63
2023/03/28 10:44:30;;;;;;;;;5.33;2.33;;;;;;;;117523;1186;25094;-63
2023/03/28 10:47:07;;;;;;;;;6.50;3.00;;;;;;;;117786;1189;24958;-63
2023/03/28 10:49:43;;;;;;;;;3.00;3.00;;;;;;;;117791;1193;25135;-62
2023/03/28 10:52:42;;;;;;;;;2.00;2.00;;;;;;;;117757;1185;25511;-63
2023/03/28 10:55:15;;;;;;;;;2.67;2.67;;;;;;;;117691;1193;25548;-63
2023/03/28 10:58:01;;;;;;;;;3.00;2.00;;;;;;;;117502;1180;24922;-62
2023/03/28 11:00:50;;;;;;;;;2.00;2.00;;;;;;;;117797;1180;25021;-63
2023/03/28 11:03:44;;;;;;;;;3.50;1.50;;;;;;;;117664;1180;25545;-63
2023/03/28 11:06:25;;;;;;;;;2.67;1.33;;;;;;;;117788;1180;25279;-62
2023/03/28 11:08:56;;;;;;;;;2.33;2.00;;;;;;;;117797;1180;26053;-63
2023/03/28 11:11:45;;;;;;;;;2.67;2.67;;;;;;;;117784;1193;24899;-62
2023/03/28 11:14:40;;;;;;;;;4.00;3.50;;;;;;;;117434;1182;25591;-63
2023/03/28 11:17:42;;;;;;;;;4.00;3.00;;;;;;;;117452;1189;24961;-63
2023/03/28 11:20:24;;;;;;;;;1.75;1.75;;;;;;;;117429;1193;24971;-63
2023/03/28 11:23:06;;;;;;;;;3.00;1.00;;;;;;;;117434;1187;24917;-66
2023/03/28 11:26:03;;;;;;;;;5.00;1.00;;;;;;;;117551;1187;25561;-65
2023/03/28 11:28:47;;;;;;;;;4.00;3.00;;;;;;;;117452;1180;25600;-68
2023/03/28 11:31:27;;;;;;;;;2.00;2.00;;;;;;;;117435;1180;25682;-63
2023/03/28 11:34:02;;;;;;;;;4.00;2.00;;;;;;;;117420;1184;25479;-61
2023/03/28 11:36:53;;;;;;;;;3.00;3.00;;;;;;;;117405;1180;24988;-63
2023/03/28 11:39:51;;;;;;;;;2.67;1.00;;;;;;;;117369;1190;24776;-63
2023/03/28 11:42:28;;;;;;;;;3.00;3.00;;;;;;;;117387;1181;25487;-63
2023/03/28 11:45:28;;;;;;;;;3.00;3.00;;;;;;;;117421;1180;24844;-62
2023/03/28 11:48:28;;;;;;;;;2.50;2.50;;;;;;;;117406;1193;24766;-62
2023/03/28 11:51:10;;;;;;;;;3.33;2.00;;;;;;;;117415;1181;25153;-63
2023/03/28 11:53:46;;;;;;;;;4.00;2.00;;;;;;;;117427;1193;25039;-62
2023/03/28 11:56:39;;;;;;;;;3.67;2.00;;;;;;;;117434;1180;25433;-62
2023/03/28 11:59:19;;;;;;;;;2.67;2.67;;;;;;;;117433;1180;25169;-62
2023/03/28 12:01:54;;;;;;;;;2.00;2.00;;;;;;;;117438;1181;24814;-62
2023/03/28 12:04:47;;;;;;;;;2.00;2.00;;;;;;;;117438;1185;25144;-62
2023/03/28 12:07:20;;;;;;;;;1.33;1.00;;;;;;;;117437;1189;25266;-62
2023/03/28 12:10:19;;;;;;;;;2.50;2.50;;;;;;;;117398;1190;25268;-62
2023/03/28 12:12:47;;;;;;;;;0.00;0.00;;;;;;;;117598;1180;25091;-63
2023/03/28 12:15:19;;;;;;;;;2.00;2.00;;;;;;;;117788;1193;25440;-62
2023/03/28 12:17:51;;;;;;;;;2.50;2.00;;;;;;;;117736;1180;25760;-63
2023/03/28 12:20:30;;;;;;;;;2.00;2.00;;;;;;;;117805;1180;24775;-63
2023/03/28 12:23:08;;;;;;;;;4.00;2.00;;;;;;;;117486;1180;24865;-63
2023/03/28 12:25:54;;;;;;;;;2.50;2.50;;;;;;;;117813;1180;25377;-63
2023/03/28 12:28:37;;;;;;;;;2.67;2.00;;;;;;;;117821;1193;25192;-63
2023/03/28 12:31:13;;;;;;;;;3.00;3.00;;;;;;;;117806;1181;25250;-63
2023/03/28 12:34:02;;;;;;;;;2.00;2.00;;;;;;;;117502;1180;25466;-63
2023/03/28 12:37:01;;;;;;;;;3.00;2.00;;;;;;;;117784;1181;25340;-63
2023/03/28 12:39:36;;;;;;;;;5.00;2.00;;;;;;;;117682;1180;24937;-62
2023/03/28 12:42:08;;;;;;;;;3.67;2.00;;;;;;;;117820;1180;24853;-64
2023/03/28 12:44:47;;;;;;;;;1.75;1.75;;;;;;;;117490;1193;25709;-63
2023/03/28 12:47:21;;;;;;;;;2.50;1.25;;;;;;;;117793;1180;25673;-64
2023/03/28 12:50:00;;;;;;;;;1.00;1.00;;;;;;;;117472;1181;25177;-63
2023/03/28 12:52:34;;;;;;;;;2.00;1.00;;;;;;;;117751;1193;25641;-62
2023/03/28 12:55:30;;;;;;;;;3.00;2.00;;;;;;;;117506;1181;24985;-63
2023/03/28 12:58:34;;;;;;;;;2.00;2.00;;;;;;;;117713;1186;25376;-63
2023/03/28 13:01:15;;;;;;;;;2.00;2.00;;;;;;;;117310;1180;24788;-64
2023/03/28 13:04:21;;;;;;;;;0.50;0.00;;;;;;;;117787;1180;25058;-64
2023/03/28 13:07:27;;;;;;;;;3.00;1.50;;;;;;;;117854;1180;25225;-64
2023/03/28 13:10:06;;;;;;;;;1.50;1.50;;;;;;;;117839;1182;24797;-61
2023/03/28 13:12:37;;;;;;;;;2.00;2.00;;;;;;;;117803;1191;25482;-62
2023/03/28 13:15:11;;;;;;;;;1.67;1.67;;;;;;;;117790;1180;25037;-63
2023/03/28 13:17:49;;;;;;;;;1.50;1.50;;;;;;;;117793;1193;25749;-63
2023/03/28 13:20:17;;;;;;;;;0.00;0.00;;;;;;;;117474;1187;25087;-62
2023/03/28 13:22:52;;;;;;;;;6.50;3.00;;;;;;;;117799;1180;24721;-62
2023/03/28 13:25:24;;;;;;;;;1.00;1.00;;;;;;;;117854;1181;25726;-63
2023/03/28 13:28:11;;;;;;;;;0.67;0.67;;;;;;;;117508;1181;25566;-64
2023/03/28 13:30:46;;;;;;;;;1.67;1.00;;;;;;;;117514;1190;24983;-63
2023/03/28 13:33:24;;;;;;;;;2.00;2.00;;;;;;;;117507;1193;25222;-62
2023/03/28 13:35:59;;;;;;;;;2.00;2.00;;;;;;;;117744;1193;25909;-63
2023/03/28 13:38:27;;;;;;;;;1.50;1.50;;;;;;;;117761;1193;24758;-62
2023/03/28 13:40:59;;;;;;;;;4.00;1.75;;;;;;;;117823;1180;24825;-63
2023/03/28 13:44:05;;;;;;;;;3.00;1.00;;;;;;;;117787;1181;25085;-62
2023/03/28 13:46:53;;;;;;;;;3.00;3.00;;;;;;;;117787;1190;24957;-64
2023/03/28 13:49:42;;;;;;;;;4.25;2.00;;;;;;;;117802;1180;24719;-63
2023/03/28 13:52:20;;;;;;;;;1.00;1.00;;;;;;;;117799;1191;25053;-64
2023/03/28 13:54:55;;;;;;;;;1.33;1.00;;;;;;;;117801;1191;25302;-62
2023/03/28 13:57:25;;;;;;;;;2.00;1.50;;;;;;;;117802;1189;25433;-63
2023/03/28 14:00:04;;;;;;;;;3.50;2.00;;;;;;;;117473;1193;26985;-63
2023/03/28 14:02:40;;;;;;;;;2.00;2.00;;;;;;;;117450;1182;25922;-63
2023/03/28 14:05:22;;;;;;;;;1.50;1.00;;;;;;;;117774;1180;25595;-63
2023/03/28 14:07:52;;;;;;;;;2.00;2.00;;;;;;;;117788;1181;25046;-63
2023/03/28 14:10:35;;;;;;;;;2.00;2.00;;;;;;;;117778;1193;25758;-63
2023/03/28 14:13:12;;;;;;;;;2.67;1.67;;;;;;;;117868;1180;25410;-62
2023/03/28 14:15:42;;;;;;;;;2.00;0.33;;;;;;;;117814;1180;25671;-63
2023/03/28 14:18:21;;;;;;;;;1.67;1.67;;;;;;;;117677;1180;24711;-63
2023/03/28 14:20:49;;;;;;;;;1.00;1.00;;;;;;;;117478;1183;25183;-65
2023/03/28 14:23:40;;;;;;;;;4.00;2.00;;;;;;;;117580;1182;25107;-65
2023/03/28 14:26:17;;;;;;;;;3.00;2.00;;;;;;;;117514;1193;25163;-70
2023/03/28 14:28:46;;;;;;;;;1.00;1.00;;;;;;;;117820;1193;24995;-63
2023/03/28 14:31:44;;;;;;;;;3.33;2.00;;;;;;;;117803;1181;25154;-62
2023/03/28 14:34:22;;;;;;;;;2.00;2.00;;;;;;;;117821;1187;25183;-63
2023/03/28 14:36:58;;;;;;;;;2.00;2.00;;;;;;;;117760;1180;25431;-63
2023/03/28 14:39:29;;;;;;;;;1.00;1.00;;;;;;;;117450;1180;25358;-63
2023/03/28 14:42:01;;;;;;;;;0.00;0.00;;;;;;;;117822;1180;25621;-63
2023/03/28 14:44:34;;;;;;;;;1.00;1.00;;;;;;;;117500;1180;25028;-63
2023/03/28 14:47:03;;;;;;;;;1.00;1.00;;;;;;;;117781;1180;25108;-63
2023/03/28 14:49:32;;;;;;;;;1.00;1.00;;;;;;;;117832;1180;25150;-62
2023/03/28 14:52:03;;;;;;;;;2.00;2.00;;;;;;;;117389;1184;25312;-64
2023/03/28 14:54:39;;;;;;;;;3.00;2.25;;;;;;;;117770;1180;25478;-66
2023/03/28 14:57:13;;;;;;;;;2.00;2.00;;;;;;;;117814;1193;25730;-63
2023/03/28 14:59:44;;;;;;;;;2.00;2.00;;;;;;;;117406;1180;25149;-65
2023/03/28 15:02:30;;;;;;;;;2.00;0.33;;;;;;;;117780;1186;25795;-64
2023/03/28 15:05:02;;;;;;;;;3.00;1.50;;;;;;;;117771;1180;24922;-64
2023/03/28 15:07:32;;;;;;;;;3.00;2.00;;;;;;;;117824;1180;24939;-64
2023/03/28 15:10:12;;;;;;;;;1.00;1.00;;;;;;;;117808;1181;25446;-65
2023/03/28 15:12:49;;;;;;;;;1.00;1.00;;;;;;;;117399;1181;25256;-66
2023/03/28 15:15:26;;;;;;;;;3.33;2.00;;;;;;;;117454;1193;25188;-63